Granada, Colorado
Current Conditions -  °F | °C
As of 9:53 PM on Sunday 21 Dec 2014 (Local Time) from KLAA Reporting Station
Overcast Overcast  
Wind Chill: 37°   Ceiling: 10000
Heat Index: 42°   Visibility: 10mi
Dew Point: 34°   Wind: 8mph
Humidity: 73%   Direction: 40°NE
Pressure: 29.59"   Gusts: NA
Location:  38.06°N, 102.31°W
Report Text: KLAA 220453Z AUTO 04007KT 10SM OVC100 06/01 A2959 RMK AO2 SLP015 T00560011
Loading
Personal Weather Stations






























Interactive Weather Map New forecast layout! Learn more

10-Day Weather Forecast

Advertisements
Track Severe Weather on mobile